sensor_id;sensor_type;location;lat;lon;timestamp;P1;durP1;ratioP1;P2;durP2;ratioP2
25549;SDS011;13444;50.562;7.262;2023-01-13T00:01:10;0.65;;;0.50;;
25549;SDS011;13444;50.562;7.262;2023-01-13T00:03:37;0.35;;;0.35;;
25549;SDS011;13444;50.562;7.262;2023-01-13T00:06:04;0.40;;;0.40;;
25549;SDS011;13444;50.562;7.262;2023-01-13T00:08:31;0.30;;;0.30;;
25549;SDS011;13444;50.562;7.262;2023-01-13T00:10:57;0.68;;;0.40;;
25549;SDS011;13444;50.562;7.262;2023-01-13T00:13:22;0.47;;;0.30;;
25549;SDS011;13444;50.562;7.262;2023-01-13T00:15:54;0.30;;;0.30;;
25549;SDS011;13444;50.562;7.262;2023-01-13T00:18:21;0.30;;;0.30;;
25549;SDS011;13444;50.562;7.262;2023-01-13T00:20:46;0.30;;;0.30;;
25549;SDS011;13444;50.562;7.262;2023-01-13T00:23:12;0.55;;;0.32;;
25549;SDS011;13444;50.562;7.262;2023-01-13T00:25:37;0.68;;;0.40;;
25549;SDS011;13444;50.562;7.262;2023-01-13T00:28:03;0.85;;;0.38;;
25549;SDS011;13444;50.562;7.262;2023-01-13T00:30:28;1.90;;;0.68;;
25549;SDS011;13444;50.562;7.262;2023-01-13T00:32:54;0.38;;;0.38;;
25549;SDS011;13444;50.562;7.262;2023-01-13T00:35:19;0.68;;;0.30;;
25549;SDS011;13444;50.562;7.262;2023-01-13T00:37:45;0.98;;;0.50;;
25549;SDS011;13444;50.562;7.262;2023-01-13T00:40:10;1.38;;;0.70;;
25549;SDS011;13444;50.562;7.262;2023-01-13T00:42:36;0.88;;;0.50;;
25549;SDS011;13444;50.562;7.262;2023-01-13T00:45:20;2.03;;;0.60;;
25549;SDS011;13444;50.562;7.262;2023-01-13T00:47:45;1.67;;;0.60;;
25549;SDS011;13444;50.562;7.262;2023-01-13T00:50:11;1.95;;;0.35;;
25549;SDS011;13444;50.562;7.262;2023-01-13T00:52:36;0.75;;;0.50;;
25549;SDS011;13444;50.562;7.262;2023-01-13T00:55:02;0.80;;;0.50;;
25549;SDS011;13444;50.562;7.262;2023-01-13T00:57:28;0.40;;;0.40;;
25549;SDS011;13444;50.562;7.262;2023-01-13T00:59:53;0.30;;;0.30;;
25549;SDS011;13444;50.562;7.262;2023-01-13T01:02:19;0.40;;;0.38;;
25549;SDS011;13444;50.562;7.262;2023-01-13T01:04:44;0.30;;;0.30;;
25549;SDS011;13444;50.562;7.262;2023-01-13T01:07:10;1.13;;;0.40;;
25549;SDS011;13444;50.562;7.262;2023-01-13T01:09:35;0.30;;;0.30;;
25549;SDS011;13444;50.562;7.262;2023-01-13T01:12:03;0.70;;;0.40;;
25549;SDS011;13444;50.562;7.262;2023-01-13T01:14:29;1.42;;;0.30;;
25549;SDS011;13444;50.562;7.262;2023-01-13T01:16:54;0.30;;;0.30;;
25549;SDS011;13444;50.562;7.262;2023-01-13T01:19:20;1.10;;;0.40;;
25549;SDS011;13444;50.562;7.262;2023-01-13T01:21:45;0.80;;;0.28;;
25549;SDS011;13444;50.562;7.262;2023-01-13T01:24:11;0.52;;;0.40;;
25549;SDS011;13444;50.562;7.262;2023-01-13T01:26:36;0.30;;;0.30;;
25549;SDS011;13444;50.562;7.262;2023-01-13T01:29:02;0.45;;;0.40;;
25549;SDS011;13444;50.562;7.262;2023-01-13T01:31:29;0.30;;;0.30;;
25549;SDS011;13444;50.562;7.262;2023-01-13T01:33:56;0.32;;;0.32;;
25549;SDS011;13444;50.562;7.262;2023-01-13T01:36:23;1.25;;;0.40;;
25549;SDS011;13444;50.562;7.262;2023-01-13T01:38:56;2.53;;;0.40;;
25549;SDS011;13444;50.562;7.262;2023-01-13T01:41:23;0.50;;;0.40;;
25549;SDS011;13444;50.562;7.262;2023-01-13T01:43:55;0.40;;;0.30;;
25549;SDS011;13444;50.562;7.262;2023-01-13T01:46:36;0.32;;;0.32;;
25549;SDS011;13444;50.562;7.262;2023-01-13T01:55:26;1.55;;;0.30;;
25549;SDS011;13444;50.562;7.262;2023-01-13T02:00:33;0.28;;;0.28;;
25549;SDS011;13444;50.562;7.262;2023-01-13T02:02:58;0.30;;;0.30;;
25549;SDS011;13444;50.562;7.262;2023-01-13T02:05:25;0.70;;;0.43;;
25549;SDS011;13444;50.562;7.262;2023-01-13T02:07:51;5.47;;;0.50;;
25549;SDS011;13444;50.562;7.262;2023-01-13T02:10:20;3.30;;;0.63;;
25549;SDS011;13444;50.562;7.262;2023-01-13T02:12:47;0.68;;;0.50;;
25549;SDS011;13444;50.562;7.262;2023-01-13T02:15:20;1.75;;;0.55;;
25549;SDS011;13444;50.562;7.262;2023-01-13T02:20:23;1.80;;;0.50;;
25549;SDS011;13444;50.562;7.262;2023-01-13T02:33:04;0.82;;;0.30;;
25549;SDS011;13444;50.562;7.262;2023-01-13T02:37:53;1.48;;;0.30;;
25549;SDS011;13444;50.562;7.262;2023-01-13T02:43:02;0.70;;;0.30;;
25549;SDS011;13444;50.562;7.262;2023-01-13T02:48:15;0.77;;;0.40;;
25549;SDS011;13444;50.562;7.262;2023-01-13T02:50:43;1.10;;;0.32;;
25549;SDS011;13444;50.562;7.262;2023-01-13T02:53:18;0.63;;;0.38;;
25549;SDS011;13444;50.562;7.262;2023-01-13T02:55:49;1.38;;;0.50;;
25549;SDS011;13444;50.562;7.262;2023-01-13T02:58:18;0.35;;;0.30;;
25549;SDS011;13444;50.562;7.262;2023-01-13T03:00:48;0.65;;;0.40;;
25549;SDS011;13444;50.562;7.262;2023-01-13T03:03:14;0.30;;;0.30;;
25549;SDS011;13444;50.562;7.262;2023-01-13T03:05:40;2.65;;;0.40;;
25549;SDS011;13444;50.562;7.262;2023-01-13T03:08:20;0.40;;;0.40;;
25549;SDS011;13444;50.562;7.262;2023-01-13T03:10:58;0.32;;;0.32;;
25549;SDS011;13444;50.562;7.262;2023-01-13T03:13:49;0.57;;;0.30;;
25549;SDS011;13444;50.562;7.262;2023-01-13T03:19:02;0.88;;;0.38;;
25549;SDS011;13444;50.562;7.262;2023-01-13T03:21:50;0.35;;;0.30;;
25549;SDS011;13444;50.562;7.262;2023-01-13T03:24:29;0.50;;;0.40;;
25549;SDS011;13444;50.562;7.262;2023-01-13T03:30:05;0.38;;;0.30;;
25549;SDS011;13444;50.562;7.262;2023-01-13T03:32:37;0.52;;;0.32;;
25549;SDS011;13444;50.562;7.262;2023-01-13T03:37:33;0.90;;;0.38;;
25549;SDS011;13444;50.562;7.262;2023-01-13T03:40:02;2.20;;;0.50;;
25549;SDS011;13444;50.562;7.262;2023-01-13T03:42:36;3.15;;;0.70;;
25549;SDS011;13444;50.562;7.262;2023-01-13T03:47:41;0.50;;;0.50;;
25549;SDS011;13444;50.562;7.262;2023-01-13T03:50:21;0.85;;;0.40;;
25549;SDS011;13444;50.562;7.262;2023-01-13T03:53:35;1.63;;;0.60;;
25549;SDS011;13444;50.562;7.262;2023-01-13T03:55:47;1.92;;;0.55;;
25549;SDS011;13444;50.562;7.262;2023-01-13T03:58:17;2.72;;;0.40;;
25549;SDS011;13444;50.562;7.262;2023-01-13T04:00:50;1.10;;;0.30;;
25549;SDS011;13444;50.562;7.262;2023-01-13T04:03:36;1.23;;;0.50;;
25549;SDS011;13444;50.562;7.262;2023-01-13T04:06:20;3.45;;;0.70;;
25549;SDS011;13444;50.562;7.262;2023-01-13T04:09:23;2.63;;;0.55;;
25549;SDS011;13444;50.562;7.262;2023-01-13T04:12:01;1.85;;;0.68;;
25549;SDS011;13444;50.562;7.262;2023-01-13T04:14:48;2.35;;;0.80;;
25549;SDS011;13444;50.562;7.262;2023-01-13T04:17:15;5.70;;;0.85;;
25549;SDS011;13444;50.562;7.262;2023-01-13T04:19:42;2.83;;;0.80;;
25549;SDS011;13444;50.562;7.262;2023-01-13T04:22:07;6.07;;;0.80;;
25549;SDS011;13444;50.562;7.262;2023-01-13T04:24:33;2.13;;;0.93;;
25549;SDS011;13444;50.562;7.262;2023-01-13T04:26:58;2.53;;;0.90;;
25549;SDS011;13444;50.562;7.262;2023-01-13T04:29:24;1.75;;;0.60;;
25549;SDS011;13444;50.562;7.262;2023-01-13T04:31:49;1.92;;;0.73;;
25549;SDS011;13444;50.562;7.262;2023-01-13T04:34:15;3.03;;;0.75;;
25549;SDS011;13444;50.562;7.262;2023-01-13T04:36:40;5.88;;;0.90;;
25549;SDS011;13444;50.562;7.262;2023-01-13T04:39:06;5.65;;;1.08;;
25549;SDS011;13444;50.562;7.262;2023-01-13T04:41:31;4.68;;;0.80;;
25549;SDS011;13444;50.562;7.262;2023-01-13T04:44:17;2.45;;;0.80;;
25549;SDS011;13444;50.562;7.262;2023-01-13T04:46:42;3.25;;;0.77;;
25549;SDS011;13444;50.562;7.262;2023-01-13T04:49:08;2.78;;;0.90;;
25549;SDS011;13444;50.562;7.262;2023-01-13T04:51:33;3.92;;;1.00;;
25549;SDS011;13444;50.562;7.262;2023-01-13T04:53:58;2.80;;;0.70;;
25549;SDS011;13444;50.562;7.262;2023-01-13T04:56:24;5.75;;;1.10;;
25549;SDS011;13444;50.562;7.262;2023-01-13T04:58:49;7.20;;;0.93;;
25549;SDS011;13444;50.562;7.262;2023-01-13T05:01:15;3.38;;;1.02;;
25549;SDS011;13444;50.562;7.262;2023-01-13T05:03:40;2.78;;;0.75;;
25549;SDS011;13444;50.562;7.262;2023-01-13T05:06:06;2.72;;;0.95;;
25549;SDS011;13444;50.562;7.262;2023-01-13T05:08:32;3.38;;;0.93;;
25549;SDS011;13444;50.562;7.262;2023-01-13T05:11:00;3.75;;;1.02;;
25549;SDS011;13444;50.562;7.262;2023-01-13T05:13:46;3.58;;;1.00;;
25549;SDS011;13444;50.562;7.262;2023-01-13T05:16:30;3.28;;;1.15;;
25549;SDS011;13444;50.562;7.262;2023-01-13T05:19:14;6.05;;;1.17;;
25549;SDS011;13444;50.562;7.262;2023-01-13T05:21:40;7.30;;;1.35;;
25549;SDS011;13444;50.562;7.262;2023-01-13T05:24:24;4.95;;;1.08;;
25549;SDS011;13444;50.562;7.262;2023-01-13T05:27:08;3.25;;;0.95;;
25549;SDS011;13444;50.562;7.262;2023-01-13T05:29:33;4.60;;;1.00;;
25549;SDS011;13444;50.562;7.262;2023-01-13T05:31:59;4.95;;;1.35;;
25549;SDS011;13444;50.562;7.262;2023-01-13T05:34:26;5.72;;;0.95;;
25549;SDS011;13444;50.562;7.262;2023-01-13T05:36:52;4.72;;;1.35;;
25549;SDS011;13444;50.562;7.262;2023-01-13T05:39:17;7.32;;;1.50;;
25549;SDS011;13444;50.562;7.262;2023-01-13T05:41:43;3.63;;;1.35;;
25549;SDS011;13444;50.562;7.262;2023-01-13T05:44:27;6.07;;;1.38;;
25549;SDS011;13444;50.562;7.262;2023-01-13T05:46:52;4.72;;;1.17;;
25549;SDS011;13444;50.562;7.262;2023-01-13T05:49:18;10.02;;;2.72;;
25549;SDS011;13444;50.562;7.262;2023-01-13T05:51:43;9.85;;;1.60;;
25549;SDS011;13444;50.562;7.262;2023-01-13T05:54:09;4.95;;;1.30;;
25549;SDS011;13444;50.562;7.262;2023-01-13T05:56:34;4.22;;;1.23;;
25549;SDS011;13444;50.562;7.262;2023-01-13T05:59:00;6.82;;;1.33;;
25549;SDS011;13444;50.562;7.262;2023-01-13T06:01:25;9.18;;;1.58;;
25549;SDS011;13444;50.562;7.262;2023-01-13T06:03:51;7.10;;;1.55;;
25549;SDS011;13444;50.562;7.262;2023-01-13T06:06:16;7.20;;;1.80;;
25549;SDS011;13444;50.562;7.262;2023-01-13T06:08:42;7.57;;;1.98;;
25549;SDS011;13444;50.562;7.262;2023-01-13T06:11:07;7.00;;;1.73;;
25549;SDS011;13444;50.562;7.262;2023-01-13T06:13:33;4.70;;;1.50;;
25549;SDS011;13444;50.562;7.262;2023-01-13T06:15:58;4.97;;;1.63;;
25549;SDS011;13444;50.562;7.262;2023-01-13T06:18:25;8.77;;;3.42;;
25549;SDS011;13444;50.562;7.262;2023-01-13T06:20:51;6.68;;;2.83;;
25549;SDS011;13444;50.562;7.262;2023-01-13T06:23:17;4.07;;;1.88;;
25549;SDS011;13444;50.562;7.262;2023-01-13T06:25:55;5.82;;;2.00;;
25549;SDS011;13444;50.562;7.262;2023-01-13T06:28:30;10.82;;;2.83;;
25549;SDS011;13444;50.562;7.262;2023-01-13T06:30:58;12.38;;;2.63;;
25549;SDS011;13444;50.562;7.262;2023-01-13T06:33:30;5.28;;;1.90;;
25549;SDS011;13444;50.562;7.262;2023-01-13T06:36:01;7.90;;;2.40;;
25549;SDS011;13444;50.562;7.262;2023-01-13T06:38:32;7.20;;;3.40;;
25549;SDS011;13444;50.562;7.262;2023-01-13T06:40:59;6.55;;;2.38;;
25549;SDS011;13444;50.562;7.262;2023-01-13T06:43:25;13.82;;;5.18;;
25549;SDS011;13444;50.562;7.262;2023-01-13T06:45:54;16.75;;;4.97;;
25549;SDS011;13444;50.562;7.262;2023-01-13T06:48:30;15.13;;;4.90;;
25549;SDS011;13444;50.562;7.262;2023-01-13T06:50:58;17.15;;;7.32;;
25549;SDS011;13444;50.562;7.262;2023-01-13T06:53:23;11.98;;;4.60;;
25549;SDS011;13444;50.562;7.262;2023-01-13T06:55:49;8.90;;;3.40;;
25549;SDS011;13444;50.562;7.262;2023-01-13T06:58:14;7.35;;;2.83;;
25549;SDS011;13444;50.562;7.262;2023-01-13T07:00:40;11.80;;;5.07;;
25549;SDS011;13444;50.562;7.262;2023-01-13T07:03:15;10.23;;;4.00;;
25549;SDS011;13444;50.562;7.262;2023-01-13T07:05:41;8.05;;;2.30;;
25549;SDS011;13444;50.562;7.262;2023-01-13T07:08:14;3.70;;;1.50;;
25549;SDS011;13444;50.562;7.262;2023-01-13T07:10:39;5.00;;;1.88;;
25549;SDS011;13444;50.562;7.262;2023-01-13T07:13:05;3.13;;;1.30;;
25549;SDS011;13444;50.562;7.262;2023-01-13T07:15:52;5.57;;;1.43;;
25549;SDS011;13444;50.562;7.262;2023-01-13T07:18:19;5.03;;;1.70;;
25549;SDS011;13444;50.562;7.262;2023-01-13T07:20:50;5.77;;;1.40;;
25549;SDS011;13444;50.562;7.262;2023-01-13T07:23:17;6.95;;;1.55;;
25549;SDS011;13444;50.562;7.262;2023-01-13T07:25:42;8.63;;;1.70;;
25549;SDS011;13444;50.562;7.262;2023-01-13T07:28:08;7.13;;;1.63;;
25549;SDS011;13444;50.562;7.262;2023-01-13T07:30:33;7.95;;;1.73;;
25549;SDS011;13444;50.562;7.262;2023-01-13T07:32:59;6.97;;;1.70;;
25549;SDS011;13444;50.562;7.262;2023-01-13T07:35:24;7.03;;;1.57;;
25549;SDS011;13444;50.562;7.262;2023-01-13T07:37:50;6.70;;;1.60;;
25549;SDS011;13444;50.562;7.262;2023-01-13T07:40:15;5.80;;;1.52;;
25549;SDS011;13444;50.562;7.262;2023-01-13T07:42:41;5.50;;;1.60;;
25549;SDS011;13444;50.562;7.262;2023-01-13T07:45:25;12.35;;;2.13;;
25549;SDS011;13444;50.562;7.262;2023-01-13T07:47:51;9.07;;;1.80;;
25549;SDS011;13444;50.562;7.262;2023-01-13T07:50:17;5.37;;;1.37;;
25549;SDS011;13444;50.562;7.262;2023-01-13T07:52:45;8.47;;;1.87;;
25549;SDS011;13444;50.562;7.262;2023-01-13T07:55:10;6.85;;;1.50;;
25549;SDS011;13444;50.562;7.262;2023-01-13T07:57:36;6.80;;;1.60;;
25549;SDS011;13444;50.562;7.262;2023-01-13T08:00:02;7.40;;;2.00;;
25549;SDS011;13444;50.562;7.262;2023-01-13T08:02:28;7.07;;;2.40;;
25549;SDS011;13444;50.562;7.262;2023-01-13T08:04:54;13.10;;;3.40;;
25549;SDS011;13444;50.562;7.262;2023-01-13T08:07:19;6.15;;;2.28;;
25549;SDS011;13444;50.562;7.262;2023-01-13T08:09:45;4.93;;;1.48;;
25549;SDS011;13444;50.562;7.262;2023-01-13T08:12:10;7.25;;;2.00;;
25549;SDS011;13444;50.562;7.262;2023-01-13T08:14:54;8.57;;;1.98;;
25549;SDS011;13444;50.562;7.262;2023-01-13T08:17:20;10.35;;;5.00;;
25549;SDS011;13444;50.562;7.262;2023-01-13T08:19:45;6.45;;;1.80;;
25549;SDS011;13444;50.562;7.262;2023-01-13T08:22:11;6.88;;;1.63;;
25549;SDS011;13444;50.562;7.262;2023-01-13T08:24:37;5.80;;;1.67;;
25549;SDS011;13444;50.562;7.262;2023-01-13T08:27:02;7.50;;;1.77;;
25549;SDS011;13444;50.562;7.262;2023-01-13T08:29:28;9.18;;;1.85;;
25549;SDS011;13444;50.562;7.262;2023-01-13T08:31:53;8.55;;;1.75;;
25549;SDS011;13444;50.562;7.262;2023-01-13T08:34:19;9.60;;;2.17;;
25549;SDS011;13444;50.562;7.262;2023-01-13T08:36:44;6.40;;;1.77;;
25549;SDS011;13444;50.562;7.262;2023-01-13T08:39:12;6.70;;;1.55;;
25549;SDS011;13444;50.562;7.262;2023-01-13T08:41:38;6.38;;;1.88;;
25549;SDS011;13444;50.562;7.262;2023-01-13T08:44:19;7.88;;;1.88;;
25549;SDS011;13444;50.562;7.262;2023-01-13T08:46:44;7.25;;;1.70;;
25549;SDS011;13444;50.562;7.262;2023-01-13T08:49:10;12.38;;;1.73;;
25549;SDS011;13444;50.562;7.262;2023-01-13T08:51:35;8.55;;;2.15;;
25549;SDS011;13444;50.562;7.262;2023-01-13T08:54:01;12.63;;;1.95;;
25549;SDS011;13444;50.562;7.262;2023-01-13T08:56:30;14.43;;;2.03;;
25549;SDS011;13444;50.562;7.262;2023-01-13T08:58:56;6.72;;;1.90;;
25549;SDS011;13444;50.562;7.262;2023-01-13T09:01:22;14.00;;;2.20;;
25549;SDS011;13444;50.562;7.262;2023-01-13T09:03:48;9.93;;;2.50;;
25549;SDS011;13444;50.562;7.262;2023-01-13T09:06:13;10.35;;;2.20;;
25549;SDS011;13444;50.562;7.262;2023-01-13T09:08:39;12.15;;;2.20;;
25549;SDS011;13444;50.562;7.262;2023-01-13T09:11:05;11.75;;;1.90;;
25549;SDS011;13444;50.562;7.262;2023-01-13T09:13:50;9.05;;;2.00;;
25549;SDS011;13444;50.562;7.262;2023-01-13T09:16:16;13.65;;;2.10;;
25549;SDS011;13444;50.562;7.262;2023-01-13T09:18:42;5.47;;;1.85;;
25549;SDS011;13444;50.562;7.262;2023-01-13T09:21:08;6.65;;;1.98;;
25549;SDS011;13444;50.562;7.262;2023-01-13T09:23:35;7.38;;;2.50;;
25549;SDS011;13444;50.562;7.262;2023-01-13T09:26:00;6.68;;;2.17;;
25549;SDS011;13444;50.562;7.262;2023-01-13T09:28:26;9.75;;;2.22;;
25549;SDS011;13444;50.562;7.262;2023-01-13T09:30:51;10.73;;;2.60;;
25549;SDS011;13444;50.562;7.262;2023-01-13T09:33:17;4.93;;;1.83;;
25549;SDS011;13444;50.562;7.262;2023-01-13T09:36:01;6.80;;;1.65;;
25549;SDS011;13444;50.562;7.262;2023-01-13T09:38:26;9.70;;;1.73;;
25549;SDS011;13444;50.562;7.262;2023-01-13T09:40:52;5.32;;;1.60;;
25549;SDS011;13444;50.562;7.262;2023-01-13T09:43:20;9.05;;;2.15;;
25549;SDS011;13444;50.562;7.262;2023-01-13T09:46:11;8.75;;;1.70;;
25549;SDS011;13444;50.562;7.262;2023-01-13T09:49:18;10.50;;;2.15;;
25549;SDS011;13444;50.562;7.262;2023-01-13T09:51:57;10.05;;;1.77;;
25549;SDS011;13444;50.562;7.262;2023-01-13T09:54:37;7.82;;;1.92;;
25549;SDS011;13444;50.562;7.262;2023-01-13T09:57:07;8.77;;;1.92;;
25549;SDS011;13444;50.562;7.262;2023-01-13T09:59:38;9.85;;;2.30;;
25549;SDS011;13444;50.562;7.262;2023-01-13T10:05:27;11.13;;;1.95;;
25549;SDS011;13444;50.562;7.262;2023-01-13T10:08:01;5.82;;;2.08;;
25549;SDS011;13444;50.562;7.262;2023-01-13T10:13:14;7.50;;;2.35;;
25549;SDS011;13444;50.562;7.262;2023-01-13T10:18:40;9.63;;;2.20;;
25549;SDS011;13444;50.562;7.262;2023-01-13T10:21:24;8.35;;;2.22;;
25549;SDS011;13444;50.562;7.262;2023-01-13T10:26:57;12.18;;;2.47;;
25549;SDS011;13444;50.562;7.262;2023-01-13T10:29:31;11.02;;;2.20;;
25549;SDS011;13444;50.562;7.262;2023-01-13T10:31:58;11.60;;;2.20;;
25549;SDS011;13444;50.562;7.262;2023-01-13T10:34:25;7.53;;;2.13;;
25549;SDS011;13444;50.562;7.262;2023-01-13T10:37:04;8.55;;;2.08;;
25549;SDS011;13444;50.562;7.262;2023-01-13T10:39:38;7.72;;;2.03;;
25549;SDS011;13444;50.562;7.262;2023-01-13T10:42:05;6.07;;;2.03;;
25549;SDS011;13444;50.562;7.262;2023-01-13T10:44:59;7.13;;;2.33;;
25549;SDS011;13444;50.562;7.262;2023-01-13T10:47:28;6.22;;;2.10;;
25549;SDS011;13444;50.562;7.262;2023-01-13T10:52:38;11.02;;;3.25;;
25549;SDS011;13444;50.562;7.262;2023-01-13T10:58:12;8.23;;;2.17;;
25549;SDS011;13444;50.562;7.262;2023-01-13T11:00:41;5.88;;;2.05;;
25549;SDS011;13444;50.562;7.262;2023-01-13T11:03:20;7.53;;;2.08;;
25549;SDS011;13444;50.562;7.262;2023-01-13T11:08:16;11.80;;;2.22;;
25549;SDS011;13444;50.562;7.262;2023-01-13T11:10:44;4.75;;;1.90;;
25549;SDS011;13444;50.562;7.262;2023-01-13T11:13:13;10.07;;;2.55;;
25549;SDS011;13444;50.562;7.262;2023-01-13T11:15:44;8.15;;;2.15;;
25549;SDS011;13444;50.562;7.262;2023-01-13T11:21:07;7.80;;;2.30;;
25549;SDS011;13444;50.562;7.262;2023-01-13T11:23:46;10.18;;;2.05;;
25549;SDS011;13444;50.562;7.262;2023-01-13T11:26:19;8.38;;;1.90;;
25549;SDS011;13444;50.562;7.262;2023-01-13T11:28:56;9.40;;;2.13;;
25549;SDS011;13444;50.562;7.262;2023-01-13T11:31:29;10.20;;;2.20;;
25549;SDS011;13444;50.562;7.262;2023-01-13T11:34:19;9.90;;;2.55;;
25549;SDS011;13444;50.562;7.262;2023-01-13T11:37:02;7.35;;;1.95;;
25549;SDS011;13444;50.562;7.262;2023-01-13T11:40:13;7.28;;;2.05;;
25549;SDS011;13444;50.562;7.262;2023-01-13T11:42:47;7.80;;;2.03;;
25549;SDS011;13444;50.562;7.262;2023-01-13T11:47:50;10.88;;;2.38;;
25549;SDS011;13444;50.562;7.262;2023-01-13T11:50:27;7.47;;;2.20;;
25549;SDS011;13444;50.562;7.262;2023-01-13T12:01:26;7.65;;;2.20;;
25549;SDS011;13444;50.562;7.262;2023-01-13T12:06:44;9.20;;;2.70;;
25549;SDS011;13444;50.562;7.262;2023-01-13T12:12:27;8.82;;;2.20;;
25549;SDS011;13444;50.562;7.262;2023-01-13T12:23:37;9.07;;;1.60;;
25549;SDS011;13444;50.562;7.262;2023-01-13T12:26:07;8.25;;;2.10;;
25549;SDS011;13444;50.562;7.262;2023-01-13T12:31:35;7.07;;;2.00;;
25549;SDS011;13444;50.562;7.262;2023-01-13T12:39:06;5.95;;;1.65;;
25549;SDS011;13444;50.562;7.262;2023-01-13T12:41:57;6.05;;;1.98;;
25549;SDS011;13444;50.562;7.262;2023-01-13T12:47:44;4.90;;;1.73;;
25549;SDS011;13444;50.562;7.262;2023-01-13T12:52:55;7.70;;;1.83;;
25549;SDS011;13444;50.562;7.262;2023-01-13T12:55:22;7.25;;;1.88;;
25549;SDS011;13444;50.562;7.262;2023-01-13T12:58:02;6.82;;;1.77;;
25549;SDS011;13444;50.562;7.262;2023-01-13T13:11:33;7.18;;;1.88;;
25549;SDS011;13444;50.562;7.262;2023-01-13T13:19:56;5.90;;;1.90;;
25549;SDS011;13444;50.562;7.262;2023-01-13T13:30:00;8.18;;;2.38;;
25549;SDS011;13444;50.562;7.262;2023-01-13T13:35:48;6.68;;;1.63;;
25549;SDS011;13444;50.562;7.262;2023-01-13T13:41:37;6.22;;;1.88;;
25549;SDS011;13444;50.562;7.262;2023-01-13T13:44:45;10.13;;;2.08;;
25549;SDS011;13444;50.562;7.262;2023-01-13T13:47:36;8.68;;;1.98;;
25549;SDS011;13444;50.562;7.262;2023-01-13T13:50:20;9.15;;;2.22;;
25549;SDS011;13444;50.562;7.262;2023-01-13T13:52:51;7.60;;;1.95;;
25549;SDS011;13444;50.562;7.262;2023-01-13T13:55:25;8.57;;;2.22;;
25549;SDS011;13444;50.562;7.262;2023-01-13T13:57:53;7.53;;;2.17;;
25549;SDS011;13444;50.562;7.262;2023-01-13T14:00:24;5.70;;;1.83;;
25549;SDS011;13444;50.562;7.262;2023-01-13T14:03:06;7.45;;;2.30;;
25549;SDS011;13444;50.562;7.262;2023-01-13T14:05:51;7.15;;;1.98;;
25549;SDS011;13444;50.562;7.262;2023-01-13T14:08:23;9.98;;;2.28;;
25549;SDS011;13444;50.562;7.262;2023-01-13T14:10:49;7.70;;;1.95;;
25549;SDS011;13444;50.562;7.262;2023-01-13T14:18:21;5.53;;;1.83;;
25549;SDS011;13444;50.562;7.262;2023-01-13T14:20:51;9.23;;;1.85;;
25549;SDS011;13444;50.562;7.262;2023-01-13T14:23:37;9.95;;;2.22;;
25549;SDS011;13444;50.562;7.262;2023-01-13T14:26:06;7.90;;;2.03;;
25549;SDS011;13444;50.562;7.262;2023-01-13T14:28:34;6.15;;;1.48;;
25549;SDS011;13444;50.562;7.262;2023-01-13T14:31:02;7.50;;;2.00;;
25549;SDS011;13444;50.562;7.262;2023-01-13T14:33:36;9.23;;;1.65;;
25549;SDS011;13444;50.562;7.262;2023-01-13T14:41:37;8.50;;;1.98;;
25549;SDS011;13444;50.562;7.262;2023-01-13T14:44:20;6.10;;;2.05;;
25549;SDS011;13444;50.562;7.262;2023-01-13T14:46:59;8.23;;;1.42;;
25549;SDS011;13444;50.562;7.262;2023-01-13T14:49:37;13.25;;;1.77;;
25549;SDS011;13444;50.562;7.262;2023-01-13T14:52:27;5.88;;;1.70;;
25549;SDS011;13444;50.562;7.262;2023-01-13T14:57:35;4.40;;;1.40;;
25549;SDS011;13444;50.562;7.262;2023-01-13T15:02:41;5.63;;;2.08;;
25549;SDS011;13444;50.562;7.262;2023-01-13T15:07:52;5.55;;;1.40;;
25549;SDS011;13444;50.562;7.262;2023-01-13T15:10:21;6.97;;;1.40;;
25549;SDS011;13444;50.562;7.262;2023-01-13T15:12:55;5.57;;;1.27;;
25549;SDS011;13444;50.562;7.262;2023-01-13T15:15:33;6.03;;;1.88;;
25549;SDS011;13444;50.562;7.262;2023-01-13T15:18:10;6.70;;;1.55;;
25549;SDS011;13444;50.562;7.262;2023-01-13T15:20:38;5.85;;;1.95;;
25549;SDS011;13444;50.562;7.262;2023-01-13T15:23:04;5.65;;;2.25;;
25549;SDS011;13444;50.562;7.262;2023-01-13T15:25:30;4.03;;;1.05;;
25549;SDS011;13444;50.562;7.262;2023-01-13T15:27:57;4.32;;;1.50;;
25549;SDS011;13444;50.562;7.262;2023-01-13T15:30:24;3.78;;;1.30;;
25549;SDS011;13444;50.562;7.262;2023-01-13T15:32:54;4.30;;;1.48;;
25549;SDS011;13444;50.562;7.262;2023-01-13T15:35:21;3.80;;;1.40;;
25549;SDS011;13444;50.562;7.262;2023-01-13T15:37:49;5.10;;;1.50;;
25549;SDS011;13444;50.562;7.262;2023-01-13T15:40:20;3.92;;;1.77;;
25549;SDS011;13444;50.562;7.262;2023-01-13T15:42:48;7.30;;;1.80;;
25549;SDS011;13444;50.562;7.262;2023-01-13T15:45:32;9.45;;;1.90;;
25549;SDS011;13444;50.562;7.262;2023-01-13T15:48:19;7.32;;;1.70;;
25549;SDS011;13444;50.562;7.262;2023-01-13T15:50:45;2.25;;;1.30;;
25549;SDS011;13444;50.562;7.262;2023-01-13T15:53:11;6.30;;;1.38;;
25549;SDS011;13444;50.562;7.262;2023-01-13T15:55:38;4.85;;;1.45;;
25549;SDS011;13444;50.562;7.262;2023-01-13T15:58:06;8.32;;;1.75;;
25549;SDS011;13444;50.562;7.262;2023-01-13T16:00:33;9.50;;;2.40;;
25549;SDS011;13444;50.562;7.262;2023-01-13T16:02:59;6.32;;;2.00;;
25549;SDS011;13444;50.562;7.262;2023-01-13T16:05:24;6.90;;;1.50;;
25549;SDS011;13444;50.562;7.262;2023-01-13T16:07:50;7.50;;;2.22;;
25549;SDS011;13444;50.562;7.262;2023-01-13T16:10:17;10.30;;;2.30;;
25549;SDS011;13444;50.562;7.262;2023-01-13T16:12:44;6.72;;;2.30;;
25549;SDS011;13444;50.562;7.262;2023-01-13T16:15:13;10.43;;;2.25;;
25549;SDS011;13444;50.562;7.262;2023-01-13T16:17:41;6.18;;;1.85;;
25549;SDS011;13444;50.562;7.262;2023-01-13T16:20:15;9.43;;;2.10;;
25549;SDS011;13444;50.562;7.262;2023-01-13T16:22:41;6.28;;;1.92;;
25549;SDS011;13444;50.562;7.262;2023-01-13T16:25:14;5.30;;;1.73;;
25549;SDS011;13444;50.562;7.262;2023-01-13T16:27:41;7.55;;;2.30;;
25549;SDS011;13444;50.562;7.262;2023-01-13T16:30:07;4.88;;;1.52;;
25549;SDS011;13444;50.562;7.262;2023-01-13T16:32:44;6.38;;;1.58;;
25549;SDS011;13444;50.562;7.262;2023-01-13T16:35:10;8.00;;;2.40;;
25549;SDS011;13444;50.562;7.262;2023-01-13T16:37:35;10.32;;;1.98;;
25549;SDS011;13444;50.562;7.262;2023-01-13T16:40:01;6.72;;;1.45;;
25549;SDS011;13444;50.562;7.262;2023-01-13T16:42:27;7.72;;;1.48;;
25549;SDS011;13444;50.562;7.262;2023-01-13T16:44:52;8.48;;;2.05;;
25549;SDS011;13444;50.562;7.262;2023-01-13T16:47:18;8.48;;;2.55;;
25549;SDS011;13444;50.562;7.262;2023-01-13T16:49:44;4.18;;;1.52;;
25549;SDS011;13444;50.562;7.262;2023-01-13T16:52:10;6.45;;;1.83;;
25549;SDS011;13444;50.562;7.262;2023-01-13T16:54:35;22.38;;;2.92;;
25549;SDS011;13444;50.562;7.262;2023-01-13T16:57:01;7.43;;;1.88;;
25549;SDS011;13444;50.562;7.262;2023-01-13T16:59:27;5.68;;;2.03;;
25549;SDS011;13444;50.562;7.262;2023-01-13T17:01:52;10.93;;;2.20;;
25549;SDS011;13444;50.562;7.262;2023-01-13T17:04:19;7.63;;;1.90;;
25549;SDS011;13444;50.562;7.262;2023-01-13T17:09:32;11.40;;;2.30;;
25549;SDS011;13444;50.562;7.262;2023-01-13T17:11:58;9.57;;;2.40;;
25549;SDS011;13444;50.562;7.262;2023-01-13T17:14:24;7.78;;;1.92;;
25549;SDS011;13444;50.562;7.262;2023-01-13T17:16:51;5.78;;;2.40;;
25549;SDS011;13444;50.562;7.262;2023-01-13T17:19:18;6.07;;;1.80;;
25549;SDS011;13444;50.562;7.262;2023-01-13T17:21:44;10.13;;;2.28;;
25549;SDS011;13444;50.562;7.262;2023-01-13T17:24:11;8.85;;;2.20;;
25549;SDS011;13444;50.562;7.262;2023-01-13T17:26:38;7.47;;;2.55;;
25549;SDS011;13444;50.562;7.262;2023-01-13T17:29:10;8.23;;;1.75;;
25549;SDS011;13444;50.562;7.262;2023-01-13T17:31:38;7.97;;;2.47;;
25549;SDS011;13444;50.562;7.262;2023-01-13T17:34:04;7.53;;;2.05;;
25549;SDS011;13444;50.562;7.262;2023-01-13T17:36:30;4.75;;;1.63;;
25549;SDS011;13444;50.562;7.262;2023-01-13T17:38:56;4.47;;;1.60;;